Flight Track Log - Related Links

Times and Time Zones

All times are in EDT time to prevent confusion due to time zone crossing. See the N34896 flight status page for this flight to view local times or setup timezone preferences in your user account.


Time Position Orientation Groundspeed Altitude Reporting Facility
EDT Latitude Longitude Course Direction KTS MPH feet Rate Location/Type
Wed 02:41:00 PM 41.2400 -82.8822 114° Southeast  Level Estimated
Wed 02:42:00 PM 41.2308 -82.8564 115° Southeast  Level FlightAware Approximate
Wed 02:43:00 PM 41.2216 -82.8305 115° Southeast  Level FlightAware Approximate
Wed 02:44:00 PM 41.2122 -82.8047 114° Southeast  Level Estimated
Wed 02:45:00 PM 41.2038 -82.7784 113° Southeast  Level FlightAware Approximate
Wed 02:46:00 PM 41.1944 -82.7526 118° Southeast  Level Estimated
Wed 02:47:00 PM 41.1844 -82.7273 118° Southeast  Level FlightAware Approximate
Wed 02:48:00 PM 41.1743 -82.7021 118° Southeast  Level FlightAware Approximate
Wed 02:49:00 PM 41.1642 -82.6768 118° Southeast  Level FlightAware Approximate
Wed 02:50:00 PM 41.1542 -82.6515 118° Southeast  Level FlightAware Approximate
Wed 02:51:00 PM 41.1441 -82.6263 118° Southeast  Level FlightAware Approximate
Wed 02:52:00 PM 41.1340 -82.6010 118° Southeast  Level FlightAware Approximate
Wed 02:53:00 PM 41.1239 -82.5758 118° Southeast  Level FlightAware Approximate
Wed 02:54:00 PM 41.1138 -82.5505 118° Southeast  Level FlightAware Approximate
Wed 02:55:00 PM 41.1037 -82.5253 118° Southeast  Level FlightAware Approximate
Wed 02:56:00 PM 41.0936 -82.5001 118° Southeast  Level FlightAware Approximate
Wed 02:57:00 PM 41.0835 -82.4749 118° Southeast  Level FlightAware Approximate
Wed 02:58:00 PM 41.0734 -82.4496 118° Southeast  Level FlightAware Approximate
Wed 02:59:00 PM 41.0633 -82.4244 118° Southeast  Level FlightAware Approximate
Wed 03:00:00 PM 41.0532 -82.3992 118° Southeast  Level FlightAware Approximate
Wed 03:01:00 PM 41.0430 -82.3741 118° Southeast  Level FlightAware Approximate
Wed 03:02:00 PM 41.0341 -82.3481 115° Southeast  Level Estimated
Wed 03:03:00 PM 41.0248 -82.3224 116° Southeast  Level FlightAware Approximate
Wed 03:04:00 PM 41.0155 -82.2967 116° Southeast  Level FlightAware Approximate
Wed 03:05:00 PM 41.0061 -82.2709 116° Southeast  Level FlightAware Approximate
Wed 03:06:00 PM 40.9968 -82.2452 116° Southeast  Level FlightAware Approximate
Wed 03:07:00 PM 40.9875 -82.2195 116° Southeast  Level FlightAware Approximate
Wed 03:08:00 PM 40.9781 -82.1938 116° Southeast  Level FlightAware Approximate
Wed 03:09:00 PM 40.9688 -82.1682 116° Southeast  Level FlightAware Approximate
Wed 03:10:00 PM 40.9594 -82.1425 116° Southeast  Level FlightAware Approximate
Wed 03:11:00 PM 40.9508 -82.1164 118° Southeast  Level Estimated
Wed 03:12:00 PM 40.9405 -82.0913 118° Southeast  Level FlightAware Approximate
Wed 03:13:00 PM 40.9302 -82.0663 119° Southeast  Level FlightAware Approximate
Wed 03:14:00 PM 40.9221 -82.0399 108° East  Level Estimated
Wed 03:15:00 PM 40.9147 -82.0132 110° East  Level FlightAware Approximate
Wed 03:16:00 PM 40.9073 -81.9864 110° East  Level FlightAware Approximate
Wed 03:17:00 PM 40.8999 -81.9597 110° East  Level FlightAware Approximate
Wed 03:18:00 PM 40.8925 -81.9330 110° East  Level FlightAware Approximate
Wed 03:19:00 PM 40.8816 -81.8983 143° Southeast  Level FlightAware Approximate

Login

Don't have an account? Register now (free) for customized features, flight alerts, and more!